createdAt,value
2018-12-15T00:01:20.023Z,0.00
2018-12-15T00:03:47.572Z,0.10
2018-12-15T00:06:15.183Z,0.00
2018-12-15T00:08:42.717Z,0.00
2018-12-15T00:11:10.279Z,0.00
2018-12-15T00:13:37.865Z,-0.20
2018-12-15T00:16:05.465Z,-0.30
2018-12-15T00:18:33.002Z,-0.30
2018-12-15T00:21:00.610Z,-0.30
2018-12-15T00:23:28.142Z,-0.20
2018-12-15T00:25:55.697Z,-0.20
2018-12-15T00:28:23.273Z,-0.20
2018-12-15T00:30:50.877Z,-0.10
2018-12-15T00:33:18.418Z,-0.20
2018-12-15T00:35:45.982Z,-0.20
2018-12-15T00:38:13.525Z,-0.20
2018-12-15T00:40:41.122Z,-0.20
2018-12-15T00:43:08.668Z,-0.30
2018-12-15T00:45:36.230Z,-0.30
2018-12-15T00:48:03.770Z,-0.30
2018-12-15T00:50:31.331Z,-0.30
2018-12-15T00:52:58.870Z,-0.30
2018-12-15T00:55:26.417Z,-0.40
2018-12-15T00:57:53.953Z,-0.30
2018-12-15T01:00:21.549Z,-0.30
2018-12-15T01:02:49.099Z,-0.20
2018-12-15T01:05:16.737Z,-0.30
2018-12-15T01:07:44.294Z,-0.30
2018-12-15T01:10:11.902Z,-0.20
2018-12-15T01:12:39.442Z,-0.20
2018-12-15T01:15:07.050Z,-0.30
2018-12-15T01:17:34.673Z,-0.20
2018-12-15T01:20:02.266Z,-0.30
2018-12-15T01:22:29.809Z,-0.30
2018-12-15T01:24:57.365Z,-0.20
2018-12-15T01:27:24.912Z,-0.30
2018-12-15T01:29:52.508Z,-0.10
2018-12-15T01:32:20.045Z,-0.10
2018-12-15T01:34:47.601Z,-0.10
2018-12-15T01:37:15.138Z,-0.10
2018-12-15T01:39:42.689Z,-0.10
2018-12-15T01:42:10.230Z,-0.10
2018-12-15T01:44:37.781Z,0.10
2018-12-15T01:47:05.354Z,0.00
2018-12-15T01:49:32.945Z,0.00
2018-12-15T01:52:00.498Z,0.00
2018-12-15T01:54:28.374Z,0.00
2018-12-15T01:56:55.930Z,0.00
2018-12-15T01:59:23.501Z,0.00
2018-12-15T02:01:51.050Z,0.00
2018-12-15T02:04:18.587Z,0.20
2018-12-15T02:06:46.138Z,0.20
2018-12-15T02:09:13.678Z,0.20
2018-12-15T02:11:41.233Z,0.40
2018-12-15T02:14:08.762Z,0.30
2018-12-15T02:16:36.314Z,0.40
2018-12-15T02:19:03.930Z,0.40
2018-12-15T02:21:31.551Z,0.40
2018-12-15T02:23:59.122Z,0.50
2018-12-15T02:26:26.674Z,0.40
2018-12-15T02:28:54.203Z,0.40
2018-12-15T02:31:21.847Z,0.70
2018-12-15T02:33:49.382Z,0.80
2018-12-15T02:36:16.981Z,0.70
2018-12-15T02:38:44.514Z,0.60
2018-12-15T02:41:12.065Z,0.70
2018-12-15T02:43:39.600Z,0.80
2018-12-15T02:46:07.154Z,0.90
2018-12-15T02:48:34.682Z,0.90
2018-12-15T02:51:02.249Z,0.80
2018-12-15T02:53:29.826Z,0.70
2018-12-15T02:55:58.644Z,0.50
2018-12-15T02:58:26.459Z,0.40
2018-12-15T03:00:54.023Z,0.40
2018-12-15T03:03:21.558Z,0.30
2018-12-15T03:05:49.110Z,0.20
2018-12-15T03:08:16.649Z,0.20
2018-12-15T03:10:44.221Z,0.10
2018-12-15T03:13:11.866Z,0.20
2018-12-15T03:15:39.470Z,0.10
2018-12-15T03:18:07.055Z,0.20
2018-12-15T03:20:34.727Z,0.10
2018-12-15T03:23:02.293Z,0.10
2018-12-15T03:25:29.857Z,0.00
2018-12-15T03:27:57.438Z,0.00
2018-12-15T03:30:25.015Z,-0.10
2018-12-15T03:32:52.683Z,-0.10
2018-12-15T03:35:20.234Z,0.00
2018-12-15T03:37:47.794Z,0.10
2018-12-15T03:40:15.328Z,0.10
2018-12-15T03:42:42.880Z,0.10
2018-12-15T03:45:10.426Z,-0.10
2018-12-15T03:47:37.981Z,-0.10
2018-12-15T03:50:06.510Z,-0.30
2018-12-15T03:52:34.066Z,0.00
2018-12-15T03:55:01.601Z,0.00
2018-12-15T03:57:29.158Z,0.10
2018-12-15T03:59:56.696Z,0.00
2018-12-15T04:02:24.294Z,0.00
2018-12-15T04:04:52.619Z,0.00
2018-12-15T04:07:20.173Z,-0.10
2018-12-15T04:09:47.708Z,-0.10
2018-12-15T04:12:15.269Z,-0.10
2018-12-15T04:14:42.806Z,-0.10
2018-12-15T04:17:10.366Z,-0.30
2018-12-15T04:19:37.902Z,-0.30
2018-12-15T04:22:19.303Z,-0.20
2018-12-15T04:24:46.847Z,-0.20
2018-12-15T04:27:14.409Z,-0.10
2018-12-15T04:29:41.948Z,-0.10
2018-12-15T04:32:09.503Z,0.00
2018-12-15T04:34:37.034Z,0.00
2018-12-15T04:37:04.593Z,-0.10
2018-12-15T04:39:32.170Z,-0.10
2018-12-15T04:41:59.725Z,-0.10
2018-12-15T04:44:27.266Z,-0.10
2018-12-15T04:46:55.066Z,-0.20
2018-12-15T04:49:22.605Z,-0.20
2018-12-15T04:51:50.186Z,-0.20
2018-12-15T04:54:17.725Z,-0.40
2018-12-15T04:56:45.282Z,-0.40
2018-12-15T04:59:12.884Z,-0.30
2018-12-15T05:01:40.440Z,-0.30
2018-12-15T05:04:07.989Z,-0.30
2018-12-15T05:06:35.551Z,-0.40
2018-12-15T05:09:04.011Z,-0.40
2018-12-15T05:11:31.570Z,-0.50
2018-12-15T05:13:59.109Z,-0.40
2018-12-15T05:16:26.662Z,-0.50
2018-12-15T05:18:54.242Z,-0.40
2018-12-15T05:21:21.801Z,-0.40
2018-12-15T05:23:49.339Z,-0.40
2018-12-15T05:26:16.993Z,-0.30
2018-12-15T05:28:44.570Z,-0.30
2018-12-15T05:31:12.246Z,-0.40
2018-12-15T05:33:39.797Z,-0.30
2018-12-15T05:36:07.329Z,-0.40
2018-12-15T05:38:34.953Z,-0.40
2018-12-15T05:41:02.538Z,-0.40
2018-12-15T05:43:30.201Z,-0.40
2018-12-15T05:45:57.802Z,-0.50
2018-12-15T05:48:25.613Z,-0.50
2018-12-15T05:50:53.348Z,-0.60
2018-12-15T05:53:23.532Z,-0.70
2018-12-15T05:55:51.143Z,-0.70
2018-12-15T05:58:18.743Z,-0.70
2018-12-15T06:00:46.367Z,-0.70
2018-12-15T06:03:13.922Z,-0.70
2018-12-15T06:05:41.598Z,-0.80
2018-12-15T06:08:11.149Z,-0.80
2018-12-15T06:10:40.562Z,-0.60
2018-12-15T06:13:09.442Z,-0.60
2018-12-15T06:15:37.066Z,-0.50
2018-12-15T06:18:04.963Z,-0.50
2018-12-15T06:20:32.542Z,-0.50
2018-12-15T06:23:00.099Z,-0.60
2018-12-15T06:25:27.876Z,-0.70
2018-12-15T06:27:55.462Z,-0.80
2018-12-15T06:30:22.998Z,-0.70
2018-12-15T06:32:50.554Z,-0.80
2018-12-15T06:35:18.089Z,-0.60
2018-12-15T06:37:45.641Z,-0.50
2018-12-15T06:40:13.217Z,-0.50
2018-12-15T06:42:40.774Z,-0.40
2018-12-15T06:45:08.398Z,-0.40
2018-12-15T06:47:35.961Z,-0.40
2018-12-15T06:50:04.890Z,-0.50
2018-12-15T06:52:32.446Z,-0.50
2018-12-15T06:54:59.983Z,-0.60
2018-12-15T06:57:27.543Z,-0.70
2018-12-15T06:59:55.153Z,-0.80
2018-12-15T07:02:23.237Z,-0.90
2018-12-15T07:04:50.837Z,-0.80
2018-12-15T07:07:18.413Z,-0.50
2018-12-15T07:09:45.952Z,-0.50
2018-12-15T07:12:13.561Z,-0.50
2018-12-15T07:14:41.138Z,-0.50
2018-12-15T07:17:08.879Z,-0.60
2018-12-15T07:19:36.425Z,-0.70
2018-12-15T07:22:04.039Z,-0.70
2018-12-15T07:24:31.591Z,-0.50
2018-12-15T07:26:59.283Z,-0.50
2018-12-15T07:29:26.882Z,-0.50
2018-12-15T07:31:54.427Z,-0.60
2018-12-15T07:34:22.028Z,-0.50
2018-12-15T07:36:49.566Z,-0.60
2018-12-15T07:39:17.122Z,-0.60
2018-12-15T07:41:44.658Z,-0.60
2018-12-15T07:44:12.222Z,-0.60
2018-12-15T07:46:39.753Z,-0.50
2018-12-15T07:49:07.309Z,-0.50
2018-12-15T07:51:34.851Z,-0.50
2018-12-15T07:54:02.406Z,-0.40
2018-12-15T07:56:29.966Z,-0.20
2018-12-15T07:58:57.527Z,0.00
2018-12-15T08:01:25.113Z,0.20
2018-12-15T08:03:52.661Z,0.10
2018-12-15T08:06:20.194Z,0.00
2018-12-15T08:08:47.791Z,0.20
2018-12-15T08:11:21.081Z,0.20
2018-12-15T08:13:48.678Z,0.00
2018-12-15T08:16:16.349Z,0.00
2018-12-15T08:18:43.958Z,-0.10
2018-12-15T08:21:11.537Z,-0.10
2018-12-15T08:23:39.125Z,0.00
2018-12-15T08:26:06.697Z,0.30
2018-12-15T08:28:34.290Z,0.30
2018-12-15T08:31:01.919Z,0.20
2018-12-15T08:33:29.473Z,0.10
2018-12-15T08:35:57.065Z,0.00
2018-12-15T08:38:24.643Z,0.10
2018-12-15T08:40:52.179Z,0.10
2018-12-15T08:43:19.736Z,0.30
2018-12-15T08:45:47.315Z,0.40
2018-12-15T08:48:14.867Z,0.40
2018-12-15T08:50:42.438Z,0.30
2018-12-15T08:53:09.990Z,0.50
2018-12-15T08:55:37.527Z,0.40
2018-12-15T08:58:05.078Z,0.40
2018-12-15T09:00:32.651Z,0.40
2018-12-15T09:03:00.204Z,0.50
2018-12-15T09:05:27.729Z,0.70
2018-12-15T09:07:55.295Z,0.50
2018-12-15T09:10:22.830Z,0.40
2018-12-15T09:12:50.438Z,0.30
2018-12-15T09:15:17.990Z,0.20
2018-12-15T09:17:45.557Z,0.20
2018-12-15T09:20:13.165Z,0.30
2018-12-15T09:22:40.700Z,0.20
2018-12-15T09:25:08.337Z,0.20
2018-12-15T09:27:35.986Z,0.20
2018-12-15T09:30:04.726Z,0.10
2018-12-15T09:32:32.265Z,0.20
2018-12-15T09:34:59.831Z,0.10
2018-12-15T09:37:27.361Z,0.10
2018-12-15T09:39:54.978Z,0.40
2018-12-15T09:42:22.645Z,0.50
2018-12-15T09:44:50.205Z,0.70
2018-12-15T09:47:17.751Z,0.70
2018-12-15T09:49:45.362Z,0.80
2018-12-15T09:52:13.033Z,0.70
2018-12-15T09:54:40.711Z,0.70
2018-12-15T09:57:08.288Z,0.60
2018-12-15T09:59:35.838Z,0.60
2018-12-15T10:02:03.454Z,0.60
2018-12-15T10:04:31.006Z,0.50
2018-12-15T10:06:58.543Z,0.40
2018-12-15T10:09:26.129Z,0.40
2018-12-15T10:11:53.657Z,0.50
2018-12-15T10:14:21.210Z,0.50
2018-12-15T10:16:48.782Z,0.40
2018-12-15T10:19:16.416Z,0.20
2018-12-15T10:21:43.971Z,0.10
2018-12-15T10:24:11.535Z,-0.10
2018-12-15T10:26:39.074Z,-0.10
2018-12-15T10:29:08.576Z,-0.10
2018-12-15T10:31:41.797Z,-0.10
2018-12-15T10:34:09.351Z,-0.10
2018-12-15T10:36:36.905Z,0.20
2018-12-15T10:39:07.255Z,0.10
2018-12-15T10:41:34.793Z,0.10
2018-12-15T10:44:02.386Z,0.20
2018-12-15T10:46:29.922Z,0.00
2018-12-15T10:48:57.478Z,-0.20
2018-12-15T10:51:25.012Z,0.00
2018-12-15T10:53:52.571Z,0.10
2018-12-15T10:56:20.102Z,0.00
2018-12-15T10:58:47.655Z,0.00
2018-12-15T11:01:21.683Z,0.10
2018-12-15T11:03:49.243Z,0.20
2018-12-15T11:06:16.889Z,0.30
2018-12-15T11:08:44.426Z,0.20
2018-12-15T11:11:12.023Z,0.40
2018-12-15T11:13:39.558Z,0.50
2018-12-15T11:16:07.154Z,0.40
2018-12-15T11:18:34.737Z,0.40
2018-12-15T11:21:02.290Z,0.40
2018-12-15T11:23:29.821Z,0.20
2018-12-15T11:25:57.374Z,0.10
2018-12-15T11:28:24.942Z,0.00
2018-12-15T11:30:52.528Z,-0.10
2018-12-15T11:33:20.901Z,-0.10
2018-12-15T11:35:48.573Z,-0.30
2018-12-15T11:38:16.103Z,-0.30
2018-12-15T11:40:43.707Z,-0.30
2018-12-15T11:43:11.370Z,-0.20
2018-12-15T11:45:38.921Z,0.00
2018-12-15T11:48:06.486Z,0.20
2018-12-15T11:50:34.037Z,0.10
2018-12-15T11:53:01.565Z,0.30
2018-12-15T11:55:29.110Z,0.10
2018-12-15T11:57:56.646Z,0.20
2018-12-15T12:00:24.285Z,0.20
2018-12-15T12:02:51.858Z,0.00
2018-12-15T12:05:19.415Z,0.10
2018-12-15T12:07:46.990Z,0.20
2018-12-15T12:10:14.549Z,0.30
2018-12-15T12:12:42.093Z,0.40
2018-12-15T12:15:09.685Z,0.50
2018-12-15T12:17:37.269Z,0.40
2018-12-15T12:20:06.606Z,0.50
2018-12-15T12:22:34.249Z,0.60
2018-12-15T12:25:01.802Z,1.00
2018-12-15T12:27:29.378Z,1.00
2018-12-15T12:29:56.925Z,1.40
2018-12-15T12:32:24.457Z,1.30
2018-12-15T12:34:52.024Z,1.10
2018-12-15T12:37:19.573Z,1.20
2018-12-15T12:39:47.149Z,1.30
2018-12-15T12:42:14.686Z,1.10
2018-12-15T12:44:42.309Z,1.30
2018-12-15T12:47:09.907Z,1.30
2018-12-15T12:49:37.551Z,1.30
2018-12-15T12:52:05.077Z,1.50
2018-12-15T12:54:32.649Z,1.60
2018-12-15T12:57:00.202Z,1.50
2018-12-15T12:59:27.738Z,1.30
2018-12-15T13:01:55.368Z,1.10
2018-12-15T13:04:22.906Z,1.00
2018-12-15T13:06:51.392Z,0.90
2018-12-15T13:09:19.246Z,0.80
2018-12-15T13:11:46.805Z,0.70
2018-12-15T13:14:14.336Z,0.60
2018-12-15T13:16:41.965Z,0.50
2018-12-15T13:19:09.499Z,0.50
2018-12-15T13:21:37.049Z,0.40
2018-12-15T13:24:04.683Z,0.20
2018-12-15T13:26:32.309Z,0.20
2018-12-15T13:28:59.873Z,0.10
2018-12-15T13:31:27.465Z,0.20
2018-12-15T13:33:55.125Z,0.20
2018-12-15T13:36:22.712Z,0.30
2018-12-15T13:38:50.314Z,0.30
2018-12-15T13:41:17.977Z,0.30
2018-12-15T13:43:45.563Z,0.20
2018-12-15T13:46:13.158Z,0.20
2018-12-15T13:48:40.687Z,0.20
2018-12-15T13:51:08.277Z,0.30
2018-12-15T13:53:35.858Z,0.40
2018-12-15T13:56:03.449Z,0.30
2018-12-15T13:58:30.978Z,0.30
2018-12-15T14:00:58.526Z,0.20
2018-12-15T14:03:26.059Z,0.10
2018-12-15T14:05:53.617Z,-0.10
2018-12-15T14:08:21.200Z,-0.20
2018-12-15T14:10:48.802Z,-0.20
2018-12-15T14:13:16.345Z,-0.30
2018-12-15T14:15:43.902Z,-0.30
2018-12-15T14:18:11.438Z,-0.40
2018-12-15T14:20:39.038Z,-0.40
2018-12-15T14:23:06.578Z,-0.50
2018-12-15T14:25:34.165Z,-0.50
2018-12-15T14:28:01.697Z,-0.40
2018-12-15T14:30:29.250Z,-0.50
2018-12-15T14:32:56.790Z,-0.40
2018-12-15T14:35:24.426Z,-0.50
2018-12-15T14:37:51.983Z,-0.50
2018-12-15T14:40:19.611Z,-0.50
2018-12-15T14:42:47.246Z,-0.50
2018-12-15T14:45:14.821Z,-0.50
2018-12-15T14:47:42.421Z,-0.50
2018-12-15T14:50:10.002Z,-0.50
2018-12-15T14:52:37.558Z,-0.60
2018-12-15T14:55:05.139Z,-0.60
2018-12-15T14:57:32.733Z,-0.60
2018-12-15T15:00:00.278Z,-0.70
2018-12-15T15:02:27.834Z,-0.70
2018-12-15T15:04:55.451Z,-0.70
2018-12-15T15:07:23.033Z,-0.50
2018-12-15T15:09:50.570Z,-0.50
2018-12-15T15:12:18.126Z,-0.50
2018-12-15T15:14:45.675Z,-0.40
2018-12-15T15:17:13.368Z,-0.70
2018-12-15T15:19:40.929Z,-0.70
2018-12-15T15:22:08.609Z,-0.50
2018-12-15T15:24:36.145Z,-0.60
2018-12-15T15:27:03.782Z,-0.50
2018-12-15T15:29:31.327Z,-0.40
2018-12-15T15:31:58.901Z,-0.30
2018-12-15T15:34:26.466Z,-0.30
2018-12-15T15:36:54.022Z,-0.30
2018-12-15T15:39:21.579Z,-0.40
2018-12-15T15:41:49.139Z,-0.40
2018-12-15T15:44:16.677Z,-0.40
2018-12-15T15:46:44.236Z,-0.50
2018-12-15T15:49:11.772Z,-0.60
2018-12-15T15:51:39.347Z,-0.50
2018-12-15T15:54:07.125Z,-0.50
2018-12-15T15:56:34.695Z,-0.40
2018-12-15T15:59:02.240Z,-0.50
2018-12-15T16:01:29.798Z,-0.50
2018-12-15T16:03:57.338Z,-0.50
2018-12-15T16:06:24.893Z,-0.50
2018-12-15T16:08:52.435Z,-0.50
2018-12-15T16:11:20.033Z,-0.60
2018-12-15T16:13:47.574Z,-0.60
2018-12-15T16:16:27.103Z,-0.40
2018-12-15T16:18:54.711Z,-0.40
2018-12-15T16:21:22.322Z,-0.30
2018-12-15T16:23:49.855Z,-0.20
2018-12-15T16:26:17.501Z,-0.10
2018-12-15T16:28:45.029Z,0.00
2018-12-15T16:31:12.606Z,-0.10
2018-12-15T16:33:40.203Z,-0.10
2018-12-15T16:36:07.741Z,-0.10
2018-12-15T16:38:35.334Z,-0.20
2018-12-15T16:41:02.870Z,-0.20
2018-12-15T16:43:30.427Z,-0.20
2018-12-15T16:45:57.961Z,-0.20
2018-12-15T16:48:25.518Z,-0.30
2018-12-15T16:50:53.054Z,-0.30
2018-12-15T16:53:20.611Z,-0.30
2018-12-15T16:55:48.178Z,-0.30
2018-12-15T16:58:15.730Z,-0.30
2018-12-15T17:00:43.310Z,-0.30
2018-12-15T17:03:10.869Z,-0.30
2018-12-15T17:05:38.410Z,-0.30
2018-12-15T17:08:05.961Z,-0.30
2018-12-15T17:10:33.543Z,-0.40
2018-12-15T17:13:01.100Z,-0.30
2018-12-15T17:15:28.642Z,-0.40
2018-12-15T17:17:56.198Z,-0.30
2018-12-15T17:20:23.853Z,-0.30
2018-12-15T17:22:51.496Z,-0.30
2018-12-15T17:25:19.044Z,-0.30
2018-12-15T17:27:46.638Z,-0.30
2018-12-15T17:30:14.182Z,-0.20
2018-12-15T17:32:41.740Z,-0.30
2018-12-15T17:35:09.315Z,-0.30
2018-12-15T17:37:36.906Z,-0.30
2018-12-15T17:40:06.422Z,-0.40
2018-12-15T17:42:34.066Z,-0.40
2018-12-15T17:45:01.639Z,-0.40
2018-12-15T17:47:29.197Z,-0.20
2018-12-15T17:49:56.746Z,-0.30
2018-12-15T17:52:24.302Z,-0.20
2018-12-15T17:54:51.858Z,-0.30
2018-12-15T17:57:19.409Z,-0.30
2018-12-15T17:59:46.981Z,-0.20
2018-12-15T18:02:14.578Z,-0.20
2018-12-15T18:04:42.109Z,-0.30
2018-12-15T18:07:09.690Z,-0.20
2018-12-15T18:09:37.266Z,-0.20
2018-12-15T18:12:04.874Z,0.00
2018-12-15T18:14:32.435Z,0.00
2018-12-15T18:17:00.018Z,-0.10
2018-12-15T18:19:27.814Z,-0.10
2018-12-15T18:21:55.354Z,-0.20
2018-12-15T18:24:22.910Z,-0.10
2018-12-15T18:26:50.453Z,0.10
2018-12-15T18:29:18.081Z,0.20
2018-12-15T18:31:45.657Z,0.20
2018-12-15T18:34:13.205Z,0.20
2018-12-15T18:36:40.794Z,0.10
2018-12-15T18:39:08.967Z,-0.10
2018-12-15T18:41:36.558Z,0.00
2018-12-15T18:44:04.197Z,-0.20
2018-12-15T18:46:31.733Z,-0.20
2018-12-15T18:48:59.329Z,-0.20
2018-12-15T18:51:26.905Z,-0.30
2018-12-15T18:53:54.533Z,-0.30
2018-12-15T18:56:22.075Z,-0.30
2018-12-15T18:58:50.171Z,-0.40
2018-12-15T19:01:18.035Z,-0.40
2018-12-15T19:03:45.714Z,-0.30
2018-12-15T19:06:13.297Z,-0.30
2018-12-15T19:08:40.854Z,-0.20
2018-12-15T19:11:08.390Z,-0.30
2018-12-15T19:13:35.950Z,-0.30
2018-12-15T19:16:03.570Z,-0.30
2018-12-15T19:18:31.126Z,-0.40
2018-12-15T19:20:58.706Z,-0.40
2018-12-15T19:23:26.257Z,-0.40
2018-12-15T19:25:53.791Z,-0.20
2018-12-15T19:28:21.356Z,-0.20
2018-12-15T19:30:48.891Z,-0.20
2018-12-15T19:33:16.459Z,-0.20
2018-12-15T19:35:43.997Z,-0.30
2018-12-15T19:38:11.562Z,-0.30
2018-12-15T19:40:39.099Z,-0.30
2018-12-15T19:43:06.742Z,-0.20
2018-12-15T19:45:34.323Z,-0.20
2018-12-15T19:48:01.923Z,-0.20
2018-12-15T19:50:29.458Z,-0.10
2018-12-15T19:52:57.022Z,-0.20
2018-12-15T19:55:24.567Z,-0.20
2018-12-15T19:57:52.121Z,-0.10
2018-12-15T20:00:19.747Z,-0.10
2018-12-15T20:02:47.283Z,-0.20
2018-12-15T20:05:14.881Z,-0.20
2018-12-15T20:07:42.475Z,0.00
2018-12-15T20:10:10.034Z,0.00
2018-12-15T20:12:37.562Z,0.00
2018-12-15T20:15:05.333Z,-0.10
2018-12-15T20:17:33.041Z,-0.10
2018-12-15T20:20:00.605Z,-0.20
2018-12-15T20:22:28.391Z,-0.20
2018-12-15T20:24:56.302Z,-0.30
2018-12-15T20:27:23.842Z,-0.20
2018-12-15T20:29:51.408Z,-0.10
2018-12-15T20:32:18.965Z,-0.10
2018-12-15T20:34:46.523Z,0.00
2018-12-15T20:37:14.073Z,0.10
2018-12-15T20:39:41.626Z,0.00
2018-12-15T20:42:09.341Z,0.10
2018-12-15T20:44:41.692Z,0.10
2018-12-15T20:47:06.485Z,-0.10
2018-12-15T20:49:34.067Z,-0.20
2018-12-15T20:52:01.609Z,-0.30
2018-12-15T20:54:29.170Z,-0.40
2018-12-15T20:56:56.709Z,-0.40
2018-12-15T20:59:24.270Z,-0.50
2018-12-15T21:01:51.872Z,-0.30
2018-12-15T21:04:19.431Z,-0.20
2018-12-15T21:06:46.965Z,-0.10
2018-12-15T21:09:14.546Z,-0.10
2018-12-15T21:11:42.089Z,-0.20
2018-12-15T21:14:09.642Z,-0.20
2018-12-15T21:16:37.191Z,-0.20
2018-12-15T21:19:04.750Z,-0.10
2018-12-15T21:21:32.294Z,-0.20
2018-12-15T21:23:59.849Z,-0.10
2018-12-15T21:26:27.383Z,-0.20
2018-12-15T21:28:54.937Z,0.00
2018-12-15T21:31:22.466Z,0.00
2018-12-15T21:33:50.029Z,-0.10
2018-12-15T21:36:17.566Z,-0.20
2018-12-15T21:38:45.212Z,-0.20
2018-12-15T21:41:12.750Z,-0.30
2018-12-15T21:43:40.286Z,-0.10
2018-12-15T21:46:07.842Z,-0.20
2018-12-15T21:48:35.378Z,-0.20
2018-12-15T21:51:02.974Z,-0.20
2018-12-15T21:53:30.541Z,-0.30
2018-12-15T21:55:58.097Z,-0.30
2018-12-15T21:58:25.634Z,-0.30
2018-12-15T22:00:53.189Z,-0.30
2018-12-15T22:03:20.748Z,-0.20
2018-12-15T22:05:48.308Z,-0.30
2018-12-15T22:08:15.846Z,-0.20
2018-12-15T22:10:43.394Z,0.00
2018-12-15T22:13:10.930Z,0.60
2018-12-15T22:15:38.615Z,0.50
2018-12-15T22:18:06.158Z,0.60
2018-12-15T22:20:33.949Z,0.60
2018-12-15T22:23:01.482Z,0.70
2018-12-15T22:25:29.041Z,0.90
2018-12-15T22:27:56.655Z,0.80
2018-12-15T22:30:24.201Z,0.60
2018-12-15T22:32:51.776Z,0.50
2018-12-15T22:35:19.339Z,0.50
2018-12-15T22:37:46.948Z,0.40
2018-12-15T22:40:14.498Z,0.30
2018-12-15T22:42:42.053Z,0.30
2018-12-15T22:45:09.760Z,0.30
2018-12-15T22:47:37.361Z,0.30
2018-12-15T22:50:05.793Z,0.30
2018-12-15T22:52:33.322Z,0.40
2018-12-15T22:55:00.878Z,0.40
2018-12-15T22:57:28.415Z,0.40
2018-12-15T22:59:56.089Z,0.40
2018-12-15T23:02:23.688Z,0.40
2018-12-15T23:04:51.246Z,0.30
2018-12-15T23:07:18.818Z,0.20
2018-12-15T23:09:46.415Z,0.30
2018-12-15T23:12:13.989Z,0.50
2018-12-15T23:14:41.582Z,0.60
2018-12-15T23:17:09.110Z,0.40
2018-12-15T23:19:36.666Z,0.40
2018-12-15T23:22:04.298Z,0.30
2018-12-15T23:24:31.846Z,0.40
2018-12-15T23:26:59.383Z,0.10
2018-12-15T23:29:26.969Z,-0.10
2018-12-15T23:31:54.526Z,-0.20
2018-12-15T23:34:22.111Z,-0.30
2018-12-15T23:36:49.666Z,-0.30
2018-12-15T23:39:17.198Z,-0.40
2018-12-15T23:41:44.758Z,-0.40
2018-12-15T23:44:12.293Z,-0.40
2018-12-15T23:46:39.848Z,-0.40
2018-12-15T23:49:07.381Z,-0.40
2018-12-15T23:51:34.933Z,-0.40
2018-12-15T23:54:02.474Z,-0.40
2018-12-15T23:56:30.031Z,-0.40
2018-12-15T23:58:57.569Z,-0.50
